Historyczne dane pomiarowe

Dodano dane terminowe – wersja testowa.

Dane z okresu 1951-2019

Wersja bazy: 1.34 [2019-03-16, lista zmian], aktualizacja planowana na 2019-04-15

Dane meteo z obszaru Polski uzyskane na podstawie danych udostępnionych przez Instytut Meteorologii i Gospodarki Wodnej – Państwowy Instytut Badawczy.

 

Wybierz Datę:    

       

TemperaturaWilgotnośćWiatrCiśnienieOpadyŚniegCzas trwania zjawisk
 Stacja t tx tn tng RH VA  wxwx mslp ppp RRR   cm mm wxwxwxwxwxwxwx
1957-03-18 4.5 9.1 -2.9- 89.3- 8.0 5.0---- 0.2------------
1957-03-19 0.7 3.7 -0.4- 93.8- 8.0 1.3---- 0.2------------
1957-03-20 2.9 4.9 -0.6- 98.5- 8.0 3.3---- 2.4------------
1957-03-21 6.0 11.5 3.9- 79.5- 1.3 4.7---- 0.0------------
1957-03-22 4.0 10.0 1.4- 81.5- 3.0 3.3---- 0.0------------
1957-03-23 1.6 11.9 -3.2- 75.5- 3.0 3.0---- 0.0------------
1957-03-24 0.0 4.2 -5.1- 89.0- 1.0 6.7---- 0.0------------
1957-03-25 1.2 3.5 -1.5- 75.8- 5.0 5.7---- 0.0------------
1957-03-26 6.1 11.7 0.6- 70.0- 4.0 3.3---- 0.0------------
1957-03-27 8.3 15.7 0.5- 60.0- 1.0 3.0---- 0.0------------
1957-03-28 5.6 8.7 1.6- 82.5- 7.0 1.3---- 6.9------------
1957-03-29 5.3 6.2 3.8- 98.5- 8.0 2.3---- 9.0------------
1957-03-30 5.9 12.7 1.9- 84.5- 2.0 2.3---- 0.0------------
1957-03-31 7.8 18.0 1.0- 84.0- 2.7 1.3---- 0.0------------
1957-04-01 7.2 17.3 -1.4- 68.0- 0.0 2.7---- 0.0------------
1957-04-02 9.4 17.9 0.6- 64.3- 0.0 2.3---- 0.0------------
1957-04-03 9.8 19.3 2.4- 64.8- 0.3 2.0---- 0.0------------
1957-04-04 8.6 19.2 -0.1- 59.3- 0.3 1.0---- 0.0------------
1957-04-05 10.3 21.4 -2.2- 65.5- 0.0 1.0---- 0.0------------
1957-04-06 10.1 21.2 1.6- 62.3- 5.0 3.0---- 0.0------------
1957-04-07 2.0 7.9 -0.8- 73.8- 6.7 3.3---- 0.0------------
1957-04-08 3.7 9.1 -0.8- 59.0- 4.7 4.0---- 0.0------------
1957-04-09 0.0 4.7 -3.5- 81.3- 5.0 2.0---- 0.0------------
1957-04-10 4.8 11.7 -7.8- 64.0- 4.3 3.0---- 0.0------------
1957-04-11 2.4 7.1 -0.9- 80.0- 3.3 4.7---- 0.0------------
1957-04-12 0.2 6.4 -2.3- 81.0- 2.3 1.3---- 0.0------------
1957-04-13 -1.8 5.5 -7.5- 82.0- 4.7 1.0---- 4.0------------
1957-04-14 -0.8 4.6 -8.0- 88.0- 4.3 2.0---- 0.8------------
1957-04-15 0.2 5.7 -5.6- 78.8- 2.7 1.3---- 0.7------------
1957-04-16 3.2 7.5 -7.1- 94.5- 6.7 2.7---- 2.2------------
114.4 ms

 

Źródłem pochodzenia danych jest Instytut Meteorologii i Gospodarki Wodnej – Państwowy Instytut Badawczy. Dane Instytutu Meteorologii i Gospodarki Wodnej – Państwowego Instytutu Badawczego zostały przetworzone.

Dane źródłowe można odnaleźć na stronie https://dane.imgw.pl